createdAt,value
2023-04-19T00:00:58.152Z,78.9799
2023-04-19T00:01:59.624Z,78.9265
2023-04-19T00:03:01.332Z,79.0417
2023-04-19T00:04:03.060Z,79.0861
2023-04-19T00:05:05.351Z,79.2385
2023-04-19T00:06:07.097Z,79.0601
2023-04-19T00:07:08.478Z,79.2566
2023-04-19T00:08:09.938Z,79.3738
2023-04-19T00:09:11.304Z,79.3379
2023-04-19T00:10:12.701Z,79.2353
2023-04-19T00:11:14.092Z,79.2118
2023-04-19T00:12:15.476Z,79.0268
2023-04-19T00:13:16.875Z,78.8819
2023-04-19T00:14:18.389Z,78.8105
2023-04-19T00:15:19.918Z,78.9862
2023-04-19T00:16:21.389Z,79.3302
2023-04-19T00:17:22.842Z,79.3511
2023-04-19T00:18:24.329Z,79.3755
2023-04-19T00:19:25.749Z,79.5221
2023-04-19T00:20:27.408Z,79.4395
2023-04-19T00:21:29.080Z,79.4418
2023-04-19T00:22:30.526Z,79.4155
2023-04-19T00:23:31.997Z,79.3271
2023-04-19T00:24:33.436Z,79.2313
2023-04-19T00:25:34.890Z,79.3155
2023-04-19T00:26:36.282Z,79.5240
2023-04-19T00:27:37.638Z,79.6406
2023-04-19T00:28:39.034Z,79.7969
2023-04-19T00:29:40.422Z,79.7220
2023-04-19T00:30:41.855Z,79.4376
2023-04-19T00:31:43.255Z,79.3652
2023-04-19T00:32:44.674Z,79.3291
2023-04-19T00:33:46.027Z,79.3971
2023-04-19T00:34:47.414Z,79.5777
2023-04-19T00:35:48.753Z,79.6730
2023-04-19T00:36:50.144Z,79.6105
2023-04-19T00:37:51.548Z,79.6582
2023-04-19T00:38:52.959Z,79.6407
2023-04-19T00:39:54.344Z,79.9602
2023-04-19T00:40:55.730Z,79.8392
2023-04-19T00:41:57.072Z,79.8542
2023-04-19T00:42:58.478Z,79.8097
2023-04-19T00:43:59.841Z,79.7848
2023-04-19T00:45:01.409Z,79.7159
2023-04-19T00:46:02.838Z,79.6743
2023-04-19T00:47:04.226Z,79.7427
2023-04-19T00:48:05.865Z,79.7235
2023-04-19T00:49:07.213Z,79.5571
2023-04-19T00:50:08.610Z,79.5468
2023-04-19T00:51:09.983Z,79.6133
2023-04-19T00:52:11.400Z,79.6415
2023-04-19T00:53:12.801Z,79.6449
2023-04-19T00:54:14.443Z,79.3759
2023-04-19T00:55:16.298Z,79.4528
2023-04-19T00:56:17.697Z,79.5613
2023-04-19T00:57:19.060Z,79.5642
2023-04-19T00:58:20.412Z,79.5177
2023-04-19T00:59:21.756Z,79.8749
2023-04-19T01:00:23.145Z,79.9703
2023-04-19T01:01:24.510Z,79.8870
2023-04-19T01:02:25.930Z,79.9528
2023-04-19T01:03:27.889Z,80.0950
2023-04-19T01:04:29.734Z,80.1941
2023-04-19T01:05:31.153Z,80.1731
2023-04-19T01:06:32.508Z,80.3031
2023-04-19T01:07:33.944Z,79.9938
2023-04-19T01:08:35.309Z,80.0406
2023-04-19T01:09:36.708Z,79.9481
2023-04-19T01:10:38.045Z,80.0749
2023-04-19T01:11:40.782Z,80.1887
2023-04-19T01:12:41.436Z,80.3175
2023-04-19T01:13:42.803Z,80.2770
2023-04-19T01:14:44.202Z,80.4825
2023-04-19T01:15:45.620Z,80.6027
2023-04-19T01:16:46.995Z,80.4176
2023-04-19T01:17:48.399Z,80.5633
2023-04-19T01:18:49.808Z,80.6315
2023-04-19T01:19:51.202Z,80.7213
2023-04-19T01:20:52.589Z,80.6057
2023-04-19T01:21:54.038Z,80.5157
2023-04-19T01:22:55.393Z,80.5199
2023-04-19T01:23:56.973Z,80.7096
2023-04-19T01:24:58.365Z,80.7066
2023-04-19T01:25:59.885Z,80.6668
2023-04-19T01:27:01.317Z,80.7317
2023-04-19T01:28:02.814Z,80.7143
2023-04-19T01:29:04.230Z,80.5969
2023-04-19T01:30:05.573Z,80.6740
2023-04-19T01:31:06.960Z,80.7994
2023-04-19T01:32:08.277Z,80.6994
2023-04-19T01:33:09.618Z,80.7908
2023-04-19T01:34:10.983Z,80.8891
2023-04-19T01:35:12.328Z,80.6952
2023-04-19T01:36:13.673Z,80.5331
2023-04-19T01:37:15.010Z,80.5080
2023-04-19T01:38:16.497Z,80.6097
2023-04-19T01:39:18.870Z,80.7702
2023-04-19T01:40:20.301Z,80.8034
2023-04-19T01:41:21.643Z,80.6399
2023-04-19T01:42:23.101Z,80.8127
2023-04-19T01:43:24.522Z,80.8826
2023-04-19T01:44:25.913Z,80.9295
2023-04-19T01:45:27.315Z,80.7813
2023-04-19T01:46:28.888Z,80.8218
2023-04-19T01:47:30.308Z,81.0440
2023-04-19T01:48:31.758Z,80.9611
2023-04-19T01:49:33.146Z,80.8917
2023-04-19T01:50:34.591Z,80.8266
2023-04-19T01:51:36.013Z,80.8290
2023-04-19T01:52:37.485Z,80.9939
2023-04-19T01:53:38.920Z,81.0499
2023-04-19T01:54:40.287Z,81.0773
2023-04-19T01:55:41.742Z,81.1162
2023-04-19T01:56:43.209Z,81.1460
2023-04-19T01:57:44.609Z,81.0035
2023-04-19T01:58:46.057Z,81.0865
2023-04-19T01:59:47.430Z,81.2655
2023-04-19T02:00:48.919Z,81.3580
2023-04-19T02:01:50.348Z,81.1830
2023-04-19T02:02:51.989Z,81.2515
2023-04-19T02:03:53.598Z,81.3150
2023-04-19T02:04:55.526Z,81.1857
2023-04-19T02:05:56.963Z,81.1421
2023-04-19T02:06:58.431Z,81.1792
2023-04-19T02:07:59.876Z,81.2808
2023-04-19T02:09:01.258Z,81.1517
2023-04-19T02:10:02.773Z,81.1856
2023-04-19T02:11:04.221Z,81.1166
2023-04-19T02:12:05.623Z,81.1545
2023-04-19T02:13:07.139Z,81.1378
2023-04-19T02:14:08.542Z,81.1670
2023-04-19T02:15:09.969Z,81.2076
2023-04-19T02:16:11.550Z,81.1310
2023-04-19T02:17:13.037Z,81.1274
2023-04-19T02:18:14.423Z,81.0099
2023-04-19T02:19:15.875Z,81.2022
2023-04-19T02:20:17.299Z,81.2023
2023-04-19T02:21:18.724Z,81.3102
2023-04-19T02:22:20.147Z,81.1109
2023-04-19T02:23:21.608Z,80.9202
2023-04-19T02:24:23.014Z,81.0127
2023-04-19T02:25:24.467Z,80.9534
2023-04-19T02:26:26.030Z,81.1018
2023-04-19T02:27:27.489Z,81.2715
2023-04-19T02:28:28.888Z,81.1491
2023-04-19T02:29:30.382Z,81.1174
2023-04-19T02:30:31.858Z,80.9446
2023-04-19T02:31:33.300Z,81.1021
2023-04-19T02:32:34.790Z,81.2077
2023-04-19T02:33:36.127Z,81.2520
2023-04-19T02:34:37.599Z,81.2394
2023-04-19T02:35:38.966Z,81.2081
2023-04-19T02:36:40.347Z,81.3092
2023-04-19T02:37:41.829Z,81.2149
2023-04-19T02:38:43.190Z,81.2065
2023-04-19T02:39:44.595Z,81.3298
2023-04-19T02:40:46.035Z,81.4034
2023-04-19T02:41:47.558Z,81.3161
2023-04-19T02:42:48.963Z,81.1103
2023-04-19T02:43:50.411Z,80.9735
2023-04-19T02:44:51.995Z,80.9317
2023-04-19T02:45:53.476Z,81.0188
2023-04-19T02:46:54.893Z,80.8718
2023-04-19T02:47:56.369Z,80.7737
2023-04-19T02:48:57.939Z,80.9551
2023-04-19T02:49:59.328Z,80.8873
2023-04-19T02:51:00.773Z,80.9960
2023-04-19T02:52:02.241Z,81.1399
2023-04-19T02:53:03.785Z,81.3712
2023-04-19T02:54:05.273Z,81.4742
2023-04-19T02:55:06.659Z,81.4844
2023-04-19T02:56:08.073Z,81.3316
2023-04-19T02:57:09.526Z,81.0414
2023-04-19T02:58:10.921Z,81.1217
2023-04-19T02:59:12.370Z,81.1840
2023-04-19T03:00:13.861Z,81.0860
2023-04-19T03:01:15.643Z,81.1535
2023-04-19T03:02:17.118Z,81.1459
2023-04-19T03:03:18.593Z,81.2665
2023-04-19T03:04:19.998Z,81.2126
2023-04-19T03:05:21.445Z,81.3126
2023-04-19T03:06:22.858Z,81.4743
2023-04-19T03:07:24.378Z,81.5500
2023-04-19T03:08:25.799Z,81.6805
2023-04-19T03:09:27.227Z,81.6346
2023-04-19T03:10:28.685Z,81.6734
2023-04-19T03:11:30.091Z,81.6734
2023-04-19T03:12:31.473Z,81.8708
2023-04-19T03:13:32.968Z,81.7337
2023-04-19T03:14:34.362Z,82.0007
2023-04-19T03:15:35.815Z,82.0677
2023-04-19T03:16:37.252Z,82.1546
2023-04-19T03:17:38.697Z,82.0746
2023-04-19T03:18:40.131Z,82.0384
2023-04-19T03:19:41.609Z,81.9947
2023-04-19T03:20:43.058Z,81.9062
2023-04-19T03:21:44.519Z,81.9101
2023-04-19T03:22:45.982Z,82.1197
2023-04-19T03:23:47.380Z,82.2840
2023-04-19T03:24:48.787Z,82.2282
2023-04-19T03:25:50.250Z,82.0939
2023-04-19T03:26:51.725Z,82.0730
2023-04-19T03:27:53.155Z,82.1932
2023-04-19T03:28:54.660Z,82.1311
2023-04-19T03:29:56.179Z,82.0851
2023-04-19T03:30:57.676Z,82.0704
2023-04-19T03:31:59.113Z,82.2575
2023-04-19T03:33:00.520Z,82.1438
2023-04-19T03:34:01.940Z,82.1270
2023-04-19T03:35:03.348Z,82.0935
2023-04-19T03:36:04.797Z,82.0461
2023-04-19T03:37:06.190Z,82.1708
2023-04-19T03:38:07.632Z,82.2664
2023-04-19T03:39:09.082Z,82.0669
2023-04-19T03:40:10.503Z,82.0950
2023-04-19T03:41:11.949Z,82.3246
2023-04-19T03:42:13.420Z,82.3413
2023-04-19T03:43:14.839Z,82.1121
2023-04-19T03:44:16.432Z,82.1116
2023-04-19T03:45:18.194Z,81.9333
2023-04-19T03:46:19.649Z,81.9693
2023-04-19T03:47:21.253Z,81.7955
2023-04-19T03:48:22.837Z,81.7246
2023-04-19T03:49:24.294Z,81.9793
2023-04-19T03:50:25.737Z,82.1336
2023-04-19T03:51:27.158Z,82.2795
2023-04-19T03:52:28.567Z,82.2023
2023-04-19T03:53:29.970Z,82.1507
2023-04-19T03:54:31.375Z,82.0307
2023-04-19T03:55:32.841Z,82.1336
2023-04-19T03:56:34.438Z,82.0414
2023-04-19T03:57:35.863Z,81.9695
2023-04-19T03:58:37.381Z,81.9497
2023-04-19T03:59:38.800Z,82.0131
2023-04-19T04:00:40.258Z,81.9780
2023-04-19T04:01:41.895Z,81.7864
2023-04-19T04:02:43.837Z,81.8228
2023-04-19T04:03:45.634Z,81.8215
2023-04-19T04:04:47.486Z,81.7855
2023-04-19T04:05:48.929Z,81.8487
2023-04-19T04:06:50.406Z,81.8248
2023-04-19T04:07:51.808Z,81.9925
2023-04-19T04:08:53.199Z,82.0513
2023-04-19T04:09:54.618Z,81.8640
2023-04-19T04:10:56.026Z,81.9885
2023-04-19T04:11:57.410Z,81.8919
2023-04-19T04:12:58.899Z,81.8546
2023-04-19T04:14:00.392Z,81.8568
2023-04-19T04:15:01.863Z,81.7673
2023-04-19T04:16:03.290Z,81.9051
2023-04-19T04:17:04.716Z,81.8562
2023-04-19T04:18:08.566Z,82.0754
2023-04-19T04:19:07.910Z,82.0360
2023-04-19T04:20:09.328Z,81.8603
2023-04-19T04:21:10.717Z,81.8736
2023-04-19T04:22:12.163Z,82.0434
2023-04-19T04:23:13.566Z,82.2567
2023-04-19T04:24:15.144Z,82.2269
2023-04-19T04:25:16.686Z,82.0387
2023-04-19T04:26:18.086Z,81.8294
2023-04-19T04:27:19.584Z,81.5577
2023-04-19T04:28:21.274Z,81.7578
2023-04-19T04:29:22.735Z,81.8670
2023-04-19T04:30:26.554Z,82.0676
2023-04-19T04:31:24.258Z,81.7839
2023-04-19T04:32:25.750Z,81.7259
2023-04-19T04:33:27.232Z,81.7985
2023-04-19T04:34:28.724Z,81.6379
2023-04-19T04:35:30.199Z,81.6865
2023-04-19T04:36:31.645Z,81.6300
2023-04-19T04:37:33.084Z,81.6289
2023-04-19T04:38:34.576Z,81.6380
2023-04-19T04:39:35.978Z,81.5831
2023-04-19T04:40:37.383Z,81.6096
2023-04-19T04:41:38.828Z,81.6895
2023-04-19T04:42:40.295Z,81.6079
2023-04-19T04:43:41.944Z,81.4714
2023-04-19T04:44:43.381Z,81.4927
2023-04-19T04:45:44.862Z,81.6832
2023-04-19T04:46:46.331Z,81.5745
2023-04-19T04:47:47.806Z,81.4491
2023-04-19T04:48:49.279Z,81.3509
2023-04-19T04:49:50.696Z,81.3003
2023-04-19T04:50:52.113Z,81.1929
2023-04-19T04:51:53.560Z,81.3532
2023-04-19T04:52:54.972Z,81.4883
2023-04-19T04:53:56.516Z,81.5172
2023-04-19T04:54:57.978Z,81.4909
2023-04-19T04:55:59.672Z,81.4450
2023-04-19T04:57:01.189Z,81.4087
2023-04-19T04:58:02.614Z,81.2808
2023-04-19T04:59:04.000Z,81.2786
2023-04-19T05:00:05.435Z,81.3862
2023-04-19T05:01:06.888Z,81.3509
2023-04-19T05:02:08.469Z,81.1765
2023-04-19T05:03:10.060Z,81.0860
2023-04-19T05:04:11.587Z,81.0484
2023-04-19T05:05:13.086Z,80.9488
2023-04-19T05:06:14.501Z,80.8860
2023-04-19T05:07:16.173Z,80.9599
2023-04-19T05:08:17.594Z,80.9677
2023-04-19T05:09:18.998Z,80.9367
2023-04-19T05:10:20.457Z,80.7833
2023-04-19T05:11:21.885Z,80.6936
2023-04-19T05:12:23.367Z,80.7224
2023-04-19T05:13:24.829Z,80.5154
2023-04-19T05:14:26.280Z,80.5145
2023-04-19T05:15:27.709Z,80.7570
2023-04-19T05:16:29.310Z,80.8459
2023-04-19T05:17:30.825Z,80.6882
2023-04-19T05:18:32.213Z,80.9508
2023-04-19T05:19:33.654Z,80.9339
2023-04-19T05:20:35.089Z,80.6987
2023-04-19T05:21:36.577Z,80.6810
2023-04-19T05:22:37.978Z,80.7584
2023-04-19T05:23:39.453Z,80.9329
2023-04-19T05:24:42.375Z,80.8626
2023-04-19T05:25:41.485Z,81.1512
2023-04-19T05:26:42.883Z,81.0809
2023-04-19T05:27:44.308Z,81.2467
2023-04-19T05:28:45.754Z,81.1841
2023-04-19T05:29:47.175Z,81.0081
2023-04-19T05:30:48.660Z,80.8871
2023-04-19T05:31:50.101Z,80.7179
2023-04-19T05:32:51.554Z,80.5018
2023-04-19T05:33:53.047Z,80.4576
2023-04-19T05:34:54.529Z,80.3942
2023-04-19T05:35:55.947Z,80.3391
2023-04-19T05:36:57.397Z,80.6057
2023-04-19T05:37:58.821Z,80.4800
2023-04-19T05:39:00.220Z,80.3473
2023-04-19T05:40:01.667Z,80.4661
2023-04-19T05:41:03.048Z,80.6854
2023-04-19T05:42:04.462Z,80.5145
2023-04-19T05:43:05.870Z,80.3882
2023-04-19T05:44:07.281Z,80.5795
2023-04-19T05:45:08.679Z,80.5754
2023-04-19T05:46:10.165Z,80.6382
2023-04-19T05:47:11.596Z,80.5911
2023-04-19T05:48:12.987Z,80.4679
2023-04-19T05:49:14.450Z,80.3761
2023-04-19T05:50:15.845Z,80.3082
2023-04-19T05:51:17.284Z,80.1938
2023-04-19T05:52:18.686Z,80.2971
2023-04-19T05:53:20.097Z,80.4356
2023-04-19T05:54:21.505Z,80.4383
2023-04-19T05:55:23.009Z,80.3234
2023-04-19T05:56:24.440Z,80.3043
2023-04-19T05:57:25.825Z,80.5146
2023-04-19T05:58:27.254Z,80.5075
2023-04-19T05:59:28.683Z,80.3460
2023-04-19T06:00:30.083Z,80.2048
2023-04-19T06:01:31.514Z,80.2662
2023-04-19T06:02:33.133Z,80.4096
2023-04-19T06:03:34.953Z,80.3701
2023-04-19T06:04:37.375Z,80.3425
2023-04-19T06:05:39.378Z,80.1580
2023-04-19T06:06:40.801Z,80.1985
2023-04-19T06:07:47.246Z,80.4257
2023-04-19T06:08:44.282Z,80.4494
2023-04-19T06:09:45.693Z,80.2595
2023-04-19T06:10:54.510Z,80.2931
2023-04-19T06:11:51.201Z,80.0881
2023-04-19T06:12:50.518Z,79.8765
2023-04-19T06:13:51.970Z,79.8696
2023-04-19T06:14:53.399Z,80.1002
2023-04-19T06:15:54.919Z,79.8529
2023-04-19T06:16:56.304Z,79.8123
2023-04-19T06:17:59.776Z,79.9516
2023-04-19T06:18:58.881Z,79.3282
2023-04-19T06:20:00.365Z,79.4726
2023-04-19T06:21:01.775Z,79.5976
2023-04-19T06:22:03.194Z,79.7611
2023-04-19T06:23:04.614Z,79.7456
2023-04-19T06:24:06.076Z,79.3289
2023-04-19T06:25:07.521Z,79.1018
2023-04-19T06:26:09.047Z,79.3568
2023-04-19T06:27:10.479Z,79.3797
2023-04-19T06:28:11.882Z,79.5156
2023-04-19T06:29:13.277Z,79.5322
2023-04-19T06:30:14.706Z,79.5497
2023-04-19T06:31:16.099Z,79.5121
2023-04-19T06:32:17.580Z,79.2426
2023-04-19T06:33:18.995Z,79.2362
2023-04-19T06:34:20.412Z,79.2686
2023-04-19T06:35:21.811Z,79.2567
2023-04-19T06:36:23.239Z,79.1887
2023-04-19T06:37:24.691Z,78.8850
2023-04-19T06:38:26.130Z,78.9556
2023-04-19T06:39:27.548Z,78.8053
2023-04-19T06:40:29.036Z,78.8897
2023-04-19T06:41:30.530Z,78.8424
2023-04-19T06:42:31.982Z,78.7564
2023-04-19T06:43:33.398Z,78.8148
2023-04-19T06:44:34.943Z,78.9397
2023-04-19T06:45:36.456Z,78.8874
2023-04-19T06:46:37.894Z,78.8233
2023-04-19T06:47:39.366Z,78.5847
2023-04-19T06:48:40.803Z,78.5117
2023-04-19T06:49:42.369Z,78.4036
2023-04-19T06:50:43.835Z,78.2157
2023-04-19T06:51:45.278Z,78.2309
2023-04-19T06:52:46.751Z,78.4287
2023-04-19T06:53:48.202Z,78.2858
2023-04-19T06:54:49.816Z,78.2629
2023-04-19T06:55:51.261Z,78.0475
2023-04-19T06:56:52.727Z,77.9980
2023-04-19T06:57:54.229Z,78.0070
2023-04-19T06:58:55.680Z,77.9783
2023-04-19T06:59:57.154Z,77.9325
2023-04-19T07:00:58.674Z,77.9102
2023-04-19T07:02:00.213Z,78.3072
2023-04-19T07:03:01.869Z,78.6400
2023-04-19T07:04:03.874Z,78.3123
2023-04-19T07:05:06.093Z,78.2127
2023-04-19T07:06:07.519Z,78.1721
2023-04-19T07:07:08.942Z,78.3007
2023-04-19T07:08:10.394Z,78.1378
2023-04-19T07:09:11.836Z,78.2812
2023-04-19T07:10:13.318Z,78.4467
2023-04-19T07:11:14.756Z,78.2481
2023-04-19T07:12:16.266Z,78.4081
2023-04-19T07:13:17.718Z,78.4338
2023-04-19T07:14:19.334Z,78.7257
2023-04-19T07:15:20.797Z,78.5656
2023-04-19T07:16:22.464Z,78.6656
2023-04-19T07:17:24.010Z,78.6214
2023-04-19T07:18:25.565Z,78.7109
2023-04-19T07:19:27.059Z,78.6997
2023-04-19T07:20:28.720Z,78.4937
2023-04-19T07:21:30.248Z,78.2292
2023-04-19T07:22:31.774Z,78.1541
2023-04-19T07:23:33.243Z,78.1640
2023-04-19T07:24:34.663Z,78.4499
2023-04-19T07:25:36.125Z,78.5108
2023-04-19T07:26:37.630Z,78.1801
2023-04-19T07:27:39.043Z,77.6856
2023-04-19T07:28:40.509Z,77.7958
2023-04-19T07:29:41.989Z,77.9914
2023-04-19T07:30:43.450Z,78.1348
2023-04-19T07:31:44.947Z,78.0412
2023-04-19T07:32:46.555Z,78.1597
2023-04-19T07:33:48.094Z,78.0965
2023-04-19T07:34:49.561Z,77.9400
2023-04-19T07:35:51.221Z,77.7162
2023-04-19T07:36:52.714Z,77.5308
2023-04-19T07:37:57.264Z,77.6247
2023-04-19T07:38:58.901Z,77.6091
2023-04-19T07:40:01.238Z,77.9010
2023-04-19T07:41:02.751Z,78.3638
2023-04-19T07:42:04.259Z,78.4111
2023-04-19T07:43:05.796Z,78.0429
2023-04-19T07:44:07.356Z,77.7948
2023-04-19T07:45:08.809Z,77.9331
2023-04-19T07:46:10.299Z,78.0232
2023-04-19T07:47:11.758Z,78.0185
2023-04-19T07:48:13.251Z,77.6666
2023-04-19T07:49:14.713Z,77.8622
2023-04-19T07:50:16.297Z,77.9780
2023-04-19T07:51:17.831Z,78.0493
2023-04-19T07:52:19.272Z,78.0389
2023-04-19T07:53:20.721Z,77.6782
2023-04-19T07:54:22.137Z,77.5965
2023-04-19T07:55:23.648Z,77.5830
2023-04-19T07:56:25.091Z,77.4986
2023-04-19T07:57:26.618Z,77.6873
2023-04-19T07:58:28.090Z,77.7576
2023-04-19T07:59:29.602Z,77.3863
2023-04-19T08:00:31.023Z,77.6743
2023-04-19T08:01:32.840Z,77.5851
2023-04-19T08:02:34.787Z,77.4651
2023-04-19T08:03:36.481Z,77.3879
2023-04-19T08:04:38.548Z,77.3171
2023-04-19T08:05:40.417Z,77.5932
2023-04-19T08:06:41.975Z,77.6986
2023-04-19T08:07:43.478Z,77.5352
2023-04-19T08:08:44.930Z,77.6513
2023-04-19T08:09:46.476Z,77.5001
2023-04-19T08:10:47.932Z,77.4382
2023-04-19T08:11:49.447Z,77.0174
2023-04-19T08:14:04.558Z,76.9701
2023-04-19T08:15:02.661Z,76.9815
2023-04-19T08:17:22.050Z,76.5177
2023-04-19T08:18:01.119Z,76.5444
2023-04-19T08:19:02.608Z,76.5572
2023-04-19T08:20:04.100Z,76.4310
2023-04-19T08:21:05.538Z,76.0202
2023-04-19T08:22:07.014Z,76.0665
2023-04-19T08:23:20.363Z,76.1071
2023-04-19T08:24:10.483Z,76.2410
2023-04-19T08:25:11.900Z,75.8697
2023-04-19T08:26:13.378Z,75.9842
2023-04-19T08:27:14.881Z,75.8419
2023-04-19T08:28:16.354Z,75.8521
2023-04-19T08:29:17.945Z,75.7114
2023-04-19T08:30:19.595Z,75.3516
2023-04-19T08:31:21.056Z,75.0284
2023-04-19T08:32:22.552Z,74.9846
2023-04-19T08:33:24.040Z,74.6740
2023-04-19T08:34:25.469Z,74.7807
2023-04-19T08:35:26.908Z,75.1352
2023-04-19T08:36:37.104Z,74.8695
2023-04-19T08:37:30.451Z,74.7783
2023-04-19T08:38:31.975Z,74.6218
2023-04-19T08:39:34.262Z,74.6558
2023-04-19T08:40:33.545Z,74.7273
2023-04-19T08:41:34.999Z,74.6530
2023-04-19T08:42:37.249Z,74.4248
2023-04-19T08:43:40.486Z,74.6461
2023-04-19T08:44:53.795Z,74.1407
2023-04-19T08:45:43.007Z,74.1571
2023-04-19T08:46:44.421Z,74.3017
2023-04-19T08:47:58.665Z,74.2499
2023-04-19T08:48:47.942Z,74.2157
2023-04-19T08:49:56.300Z,74.1829
2023-04-19T08:51:04.446Z,74.3236
2023-04-19T08:51:53.494Z,74.5541
2023-04-19T08:52:59.053Z,74.4534
2023-04-19T08:53:56.975Z,74.2567
2023-04-19T08:54:58.471Z,74.4050
2023-04-19T08:56:10.023Z,74.3014
2023-04-19T08:57:01.958Z,74.0958
2023-04-19T08:58:04.197Z,74.3463
2023-04-19T08:59:19.253Z,74.3140
2023-04-19T09:00:06.619Z,74.2354
2023-04-19T09:01:08.301Z,74.2153
2023-04-19T09:02:08.733Z,74.3028
2023-04-19T09:03:10.646Z,74.6411
2023-04-19T09:05:13.378Z,75.4902
2023-04-19T09:06:15.293Z,75.3621
2023-04-19T09:07:16.842Z,75.1902
2023-04-19T09:08:18.297Z,75.2136
2023-04-19T09:10:21.576Z,75.2938
2023-04-19T09:11:23.085Z,75.1656
2023-04-19T09:12:24.537Z,75.0215
2023-04-19T09:13:26.032Z,74.8040
2023-04-19T09:14:27.467Z,74.5592
2023-04-19T09:15:28.940Z,74.7489
2023-04-19T09:16:30.414Z,74.9000
2023-04-19T09:17:31.888Z,74.3441
2023-04-19T09:18:35.933Z,74.1894
2023-04-19T09:19:35.372Z,73.3629
2023-04-19T09:20:36.840Z,72.8121
2023-04-19T09:21:38.270Z,72.0508
2023-04-19T09:22:39.684Z,72.1320
2023-04-19T09:23:41.148Z,72.2508
2023-04-19T09:26:06.280Z,72.4779
2023-04-19T09:26:46.233Z,72.5816
2023-04-19T09:27:47.669Z,72.6365
2023-04-19T09:28:49.081Z,72.6051
2023-04-19T09:29:50.496Z,72.9157
2023-04-19T09:31:00.668Z,72.5235
2023-04-19T09:31:54.092Z,73.0449
2023-04-19T09:32:55.568Z,73.4047
2023-04-19T09:33:56.983Z,73.4015
2023-04-19T09:34:58.454Z,73.2253
2023-04-19T09:35:59.902Z,73.2030
2023-04-19T09:37:12.177Z,72.9190
2023-04-19T09:38:06.721Z,72.9573
2023-04-19T09:39:05.934Z,73.0075
2023-04-19T09:40:07.381Z,72.8956
2023-04-19T09:41:08.800Z,72.9841
2023-04-19T09:42:10.260Z,72.1992
2023-04-19T09:44:50.198Z,72.0270
2023-04-19T09:46:17.344Z,71.1401
2023-04-19T09:47:18.716Z,71.8330
2023-04-19T09:48:20.159Z,72.2556
2023-04-19T09:49:33.547Z,71.9739
2023-04-19T09:50:27.288Z,72.3021
2023-04-19T09:51:23.753Z,72.0429
2023-04-19T09:52:25.150Z,71.9688
2023-04-19T09:53:26.528Z,71.5771
2023-04-19T09:54:27.941Z,71.7764
2023-04-19T09:55:31.721Z,72.0654
2023-04-19T09:56:31.350Z,71.3792
2023-04-19T09:57:32.766Z,71.2468
2023-04-19T09:59:35.919Z,71.8964
2023-04-19T10:00:47.996Z,71.8999
2023-04-19T10:01:39.368Z,72.0639
2023-04-19T10:02:40.949Z,71.8557
2023-04-19T10:03:42.619Z,71.3466
2023-04-19T10:05:46.317Z,70.8524
2023-04-19T10:07:07.403Z,71.1766
2023-04-19T10:07:49.874Z,71.3396
2023-04-19T10:08:51.621Z,71.4396
2023-04-19T10:09:55.023Z,71.7477
2023-04-19T10:10:55.236Z,71.9489
2023-04-19T10:12:03.764Z,71.7882
2023-04-19T10:13:15.891Z,71.2299
2023-04-19T10:14:00.900Z,71.0890
2023-04-19T10:15:02.313Z,71.3590
2023-04-19T10:16:15.502Z,71.5518
2023-04-19T10:17:05.794Z,71.4058
2023-04-19T10:18:07.413Z,71.2872
2023-04-19T10:19:10.054Z,71.1239
2023-04-19T10:20:09.224Z,71.5217
2023-04-19T10:21:10.608Z,71.4731
2023-04-19T10:22:11.990Z,71.3737
2023-04-19T10:23:13.487Z,71.1526
2023-04-19T10:24:14.893Z,71.1813
2023-04-19T10:25:16.356Z,71.2944
2023-04-19T10:26:17.765Z,71.2354
2023-04-19T10:27:19.216Z,71.0631
2023-04-19T10:28:20.647Z,70.9503
2023-04-19T10:29:22.074Z,70.3216
2023-04-19T10:30:23.517Z,70.3764
2023-04-19T10:31:24.912Z,70.2876
2023-04-19T10:32:26.380Z,69.9627
2023-04-19T10:33:27.898Z,69.8322
2023-04-19T10:34:29.350Z,69.9096
2023-04-19T10:35:30.753Z,69.3011
2023-04-19T10:36:32.189Z,69.3615
2023-04-19T10:37:33.793Z,70.1310
2023-04-19T10:38:35.329Z,70.1991
2023-04-19T10:39:36.794Z,69.9734
2023-04-19T10:40:38.178Z,69.5902
2023-04-19T10:41:39.654Z,69.2577
2023-04-19T10:42:41.037Z,69.6869
2023-04-19T10:43:42.477Z,70.7226
2023-04-19T10:44:43.866Z,71.2375
2023-04-19T10:45:45.313Z,71.2914
2023-04-19T10:46:46.707Z,71.1442
2023-04-19T10:47:48.195Z,70.9514
2023-04-19T10:48:49.701Z,71.3022
2023-04-19T10:49:51.181Z,72.2454
2023-04-19T10:50:52.634Z,71.8086
2023-04-19T10:51:54.059Z,71.9425
2023-04-19T10:52:55.484Z,71.8058
2023-04-19T10:53:56.940Z,72.1019
2023-04-19T10:54:58.374Z,71.7157
2023-04-19T10:55:59.779Z,71.4825
2023-04-19T10:57:01.201Z,71.2441
2023-04-19T10:58:02.602Z,71.1277
2023-04-19T10:59:04.036Z,71.0269
2023-04-19T11:00:05.471Z,70.7656
2023-04-19T11:01:06.889Z,71.1224
2023-04-19T11:02:08.395Z,70.9647
2023-04-19T11:03:10.086Z,71.0324
2023-04-19T11:04:11.902Z,70.9588
2023-04-19T11:05:13.603Z,71.0825
2023-04-19T11:06:15.014Z,71.2797
2023-04-19T11:07:16.386Z,71.1943
2023-04-19T11:08:17.799Z,70.7364
2023-04-19T11:09:19.260Z,70.8660
2023-04-19T11:10:20.719Z,70.4653
2023-04-19T11:11:22.143Z,70.1492
2023-04-19T11:12:23.597Z,70.4155
2023-04-19T11:13:25.039Z,70.3510
2023-04-19T11:14:26.493Z,70.1926
2023-04-19T11:15:27.969Z,70.2388
2023-04-19T11:16:42.434Z,70.3696
2023-04-19T11:17:31.598Z,70.3004
2023-04-19T11:18:33.301Z,69.9841
2023-04-19T11:19:34.683Z,69.8642
2023-04-19T11:20:36.157Z,69.8373
2023-04-19T11:21:37.554Z,69.5643
2023-04-19T11:22:39.052Z,70.3529
2023-04-19T11:23:40.455Z,70.6265
2023-04-19T11:24:41.873Z,70.1394
2023-04-19T11:25:43.296Z,69.4297
2023-04-19T11:26:44.752Z,69.0883
2023-04-19T11:27:46.230Z,69.0130
2023-04-19T11:28:47.680Z,68.6617
2023-04-19T11:29:49.135Z,68.7566
2023-04-19T11:30:50.622Z,68.3673
2023-04-19T11:31:52.137Z,68.0010
2023-04-19T11:32:53.666Z,67.7721
2023-04-19T11:33:55.439Z,67.9640
2023-04-19T11:34:57.069Z,68.1740
2023-04-19T11:35:58.509Z,68.1889
2023-04-19T11:36:59.938Z,68.4765
2023-04-19T11:38:01.428Z,68.4437
2023-04-19T11:39:02.898Z,68.6958
2023-04-19T11:40:05.104Z,69.4047
2023-04-19T11:41:06.908Z,69.7348
2023-04-19T11:42:08.340Z,69.8436
2023-04-19T11:43:09.710Z,69.8748
2023-04-19T11:44:11.159Z,69.6042
2023-04-19T11:45:25.897Z,69.5403
2023-04-19T11:46:14.737Z,69.5742
2023-04-19T11:47:16.251Z,69.6591
2023-04-19T11:48:17.888Z,69.9553
2023-04-19T11:49:19.348Z,69.8036
2023-04-19T11:50:20.831Z,69.6454
2023-04-19T11:51:22.460Z,69.5304
2023-04-19T11:52:23.913Z,69.4315
2023-04-19T11:53:25.371Z,69.6232
2023-04-19T11:54:26.854Z,69.5379
2023-04-19T11:55:28.272Z,69.2619
2023-04-19T11:56:29.732Z,69.0041
2023-04-19T11:57:31.183Z,69.0757
2023-04-19T11:58:32.617Z,69.1740
2023-04-19T11:59:34.064Z,68.9827
2023-04-19T12:00:35.524Z,69.0388
2023-04-19T12:01:36.918Z,68.8642
2023-04-19T12:02:38.610Z,68.7437
2023-04-19T12:03:40.335Z,68.5734
2023-04-19T12:04:42.205Z,68.2660
2023-04-19T12:05:44.146Z,68.2580
2023-04-19T12:06:45.666Z,68.3757
2023-04-19T12:07:47.124Z,67.9645
2023-04-19T12:08:48.575Z,67.4487
2023-04-19T12:09:50.032Z,67.1938
2023-04-19T12:10:51.519Z,67.0020
2023-04-19T12:11:52.940Z,66.9148
2023-04-19T12:12:54.383Z,66.9586
2023-04-19T12:13:55.813Z,67.4896
2023-04-19T12:14:57.289Z,68.5173
2023-04-19T12:15:58.758Z,68.3996
2023-04-19T12:17:00.322Z,67.9382
2023-04-19T12:18:01.876Z,67.6207
2023-04-19T12:19:03.476Z,67.6091
2023-04-19T12:20:05.027Z,67.5717
2023-04-19T12:21:06.465Z,67.3791
2023-04-19T12:22:07.921Z,67.5845
2023-04-19T12:23:09.401Z,68.0472
2023-04-19T12:24:10.918Z,68.2725
2023-04-19T12:25:12.404Z,68.2370
2023-04-19T12:26:13.839Z,68.0245
2023-04-19T12:27:15.359Z,67.9343
2023-04-19T12:28:16.836Z,67.9186
2023-04-19T12:29:18.385Z,67.9567
2023-04-19T12:30:19.836Z,68.0931
2023-04-19T12:31:21.250Z,68.1021
2023-04-19T12:32:22.733Z,68.1456
2023-04-19T12:33:24.240Z,68.3826